Time;durP1;ratioP1;P1;durP2;ratioP2;P2;SDS_P1;SDS_P2;PMS_P1;PMS_P2;Temp;Humidity;BMP_temperature;BMP_pressure;BME280_temperature;BME280_humidity;BME280_pressure;Samples;Min_cycle;Max_cycle;Signal;HPM_P1;HPM_P2
2024/04/07 00:00:49;;;;;;;29.80;27.02;;;14.60;99.90;;;;;;4845308;29;20058;-77
2024/04/07 00:03:17;;;;;;;28.98;26.40;;;14.60;99.90;;;;;;4854648;29;20074;-77
2024/04/07 00:05:44;;;;;;;29.50;27.10;;;14.60;99.90;;;;;;4863638;29;20034;-77
2024/04/07 00:08:11;;;;;;;27.95;25.73;;;14.60;99.90;;;;;;4863550;29;20045;-77
2024/04/07 00:10:40;;;;;;;28.67;26.50;;;14.60;99.90;;;;;;4847033;29;20030;-77
2024/04/07 00:13:07;;;;;;;28.77;26.35;;;14.60;99.90;;;;;;4855398;29;20472;-77
2024/04/07 00:15:33;;;;;;;28.90;26.23;;;14.50;99.90;;;;;;4845018;29;20616;-78
2024/04/07 00:18:00;;;;;;;28.30;25.88;;;14.50;99.90;;;;;;4845034;29;20018;-77
2024/04/07 00:20:27;;;;;;;27.40;25.33;;;14.40;99.90;;;;;;4844792;29;20053;-77
2024/04/07 00:22:53;;;;;;;27.58;25.30;;;14.30;99.90;;;;;;4851122;29;20029;-77
2024/04/07 00:25:20;;;;;;;27.35;25.10;;;14.30;99.90;;;;;;4863334;29;20116;-77
2024/04/07 00:27:47;;;;;;;27.55;25.42;;;14.30;99.90;;;;;;4862672;29;20044;-77
2024/04/07 00:30:16;;;;;;;32.28;25.70;;;14.30;99.90;;;;;;4846670;29;20043;-77
2024/04/07 00:32:43;;;;;;;27.38;25.02;;;14.30;99.90;;;;;;4863053;29;20033;-77
2024/04/07 00:35:09;;;;;;;26.85;24.75;;;14.30;99.90;;;;;;4846528;29;20488;-77
2024/04/07 00:37:35;;;;;;;26.48;24.30;;;14.20;99.90;;;;;;4863122;29;20037;-77
2024/04/07 00:40:02;;;;;;;26.17;23.95;;;14.30;99.90;;;;;;4863387;29;20464;-77
2024/04/07 00:42:29;;;;;;;25.27;23.58;;;14.30;99.90;;;;;;4863045;29;20030;-77
2024/04/07 00:44:58;;;;;;;25.77;23.50;;;14.20;99.90;;;;;;4863053;29;20073;-77
2024/04/07 00:47:25;;;;;;;26.40;24.13;;;14.20;99.90;;;;;;4862973;29;20437;-78
2024/04/07 00:49:52;;;;;;;24.85;22.92;;;14.20;99.90;;;;;;4846330;29;20030;-77
2024/04/07 00:52:18;;;;;;;26.33;24.25;;;14.20;99.90;;;;;;4861346;29;20033;-77
2024/04/07 00:54:45;;;;;;;26.30;24.40;;;14.10;99.90;;;;;;4844287;29;20492;-77
2024/04/07 00:57:12;;;;;;;26.20;23.92;;;14.10;99.90;;;;;;4844123;29;20038;-77
2024/04/07 00:59:39;;;;;;;26.20;24.08;;;14.10;99.90;;;;;;4844381;29;20094;-77
2024/04/07 01:02:05;;;;;;;26.20;24.05;;;14.00;99.90;;;;;;4844354;29;20069;-77
2024/04/07 01:04:31;;;;;;;25.83;23.92;;;14.00;99.90;;;;;;4859320;29;20025;-77
2024/04/07 01:06:58;;;;;;;25.80;23.90;;;13.90;99.90;;;;;;4862486;29;20105;-77
2024/04/07 01:09:29;;;;;;;25.40;23.45;;;13.90;99.90;;;;;;4845674;29;20036;-77
2024/04/07 01:11:56;;;;;;;26.70;24.38;;;13.80;99.90;;;;;;4861392;29;20101;-77
2024/04/07 01:14:22;;;;;;;26.05;23.67;;;13.80;99.90;;;;;;4862478;29;20029;-77
2024/04/07 01:16:49;;;;;;;26.27;24.00;;;13.90;99.90;;;;;;4862422;29;20033;-77
2024/04/07 01:19:15;;;;;;;25.42;23.35;;;13.90;99.90;;;;;;4846078;29;20025;-77
2024/04/07 01:21:42;;;;;;;26.60;24.35;;;13.90;99.90;;;;;;4860899;29;20415;-77
2024/04/07 01:24:08;;;;;;;26.58;24.10;;;13.90;99.90;;;;;;4830956;29;20030;-77
2024/04/07 01:26:35;;;;;;;26.58;24.33;;;13.80;99.90;;;;;;4843724;29;20046;-77
2024/04/07 01:29:01;;;;;;;26.50;24.30;;;13.80;99.90;;;;;;4843802;29;20046;-77
2024/04/07 01:31:28;;;;;;;26.95;24.55;;;13.70;99.90;;;;;;4843865;29;20036;-77
2024/04/07 01:33:57;;;;;;;26.58;24.35;;;13.60;99.90;;;;;;4856756;29;20032;-77
2024/04/07 01:36:30;;;;;;;27.23;24.70;;;13.60;99.90;;;;;;4862078;29;20034;-77
2024/04/07 01:38:57;;;;;;;27.20;24.67;;;13.50;99.90;;;;;;4862108;29;20062;-77
2024/04/07 01:41:23;;;;;;;26.23;24.15;;;13.40;99.90;;;;;;4862071;29;20034;-77
2024/04/07 01:43:50;;;;;;;26.98;24.60;;;13.30;99.90;;;;;;4861955;29;20674;-77
2024/04/07 01:46:17;;;;;;;27.20;25.00;;;13.20;99.90;;;;;;4861754;29;20042;-77
2024/04/07 01:48:43;;;;;;;26.77;24.63;;;13.30;99.90;;;;;;4845238;29;20399;-77
2024/04/07 01:51:10;;;;;;;26.63;24.42;;;13.20;99.90;;;;;;4861893;29;20049;-77
2024/04/07 01:53:36;;;;;;;26.48;24.35;;;13.20;99.90;;;;;;4861743;29;20078;-78
2024/04/07 01:56:03;;;;;;;26.77;24.33;;;13.10;99.90;;;;;;4861778;29;20021;-77
2024/04/07 01:58:30;;;;;;;26.98;24.75;;;13.10;99.90;;;;;;4861771;29;20117;-77
2024/04/07 02:00:56;;;;;;;26.05;23.92;;;13.00;99.90;;;;;;4861681;29;20028;-78
2024/04/07 02:03:23;;;;;;;26.73;24.42;;;13.00;99.90;;;;;;4861559;29;20396;-77
2024/04/07 02:05:50;;;;;;;25.90;23.63;;;13.00;99.90;;;;;;4861574;29;20539;-78
2024/04/07 02:08:16;;;;;;;26.90;24.80;;;13.00;99.90;;;;;;4860623;29;20136;-78
2024/04/07 02:10:50;;;;;;;26.95;24.67;;;12.90;99.90;;;;;;4861571;29;20048;-77
2024/04/07 02:13:17;;;;;;;26.58;24.30;;;12.90;99.90;;;;;;4861300;29;20033;-77
2024/04/07 02:15:44;;;;;;;26.40;24.35;;;12.90;99.90;;;;;;4860330;29;20089;-78
2024/04/07 02:18:10;;;;;;;26.25;23.98;;;12.90;99.90;;;;;;4861355;29;20025;-78
2024/04/07 02:20:37;;;;;;;25.75;23.63;;;12.90;99.90;;;;;;4861180;29;20046;-78
2024/04/07 02:23:04;;;;;;;26.05;23.92;;;12.90;99.90;;;;;;4855414;29;20369;-77
2024/04/07 02:25:31;;;;;;;26.27;24.17;;;12.90;99.90;;;;;;4842857;29;20118;-77
2024/04/07 02:27:57;;;;;;;25.95;23.98;;;13.00;99.90;;;;;;4841596;29;20064;-78
2024/04/07 02:30:27;;;;;;;25.45;23.65;;;13.00;99.90;;;;;;4842802;29;20037;-77
2024/04/07 02:32:53;;;;;;;25.67;23.98;;;13.10;99.90;;;;;;4845846;29;20113;-78
2024/04/07 02:35:20;;;;;;;26.35;24.27;;;13.20;99.90;;;;;;4861167;29;20034;-78
2024/04/07 02:37:46;;;;;;;26.35;24.35;;;13.30;99.90;;;;;;4860580;29;20518;-78
2024/04/07 02:40:13;;;;;;;26.13;24.23;;;13.40;99.90;;;;;;4861054;29;20040;-77
2024/04/07 02:42:39;;;;;;;26.52;24.60;;;13.50;99.90;;;;;;4860979;29;20048;-77
2024/04/07 02:48:04;;;;;;;26.38;24.58;;;13.60;99.90;;;;;;4860825;29;20049;-77
2024/04/07 02:50:32;;;;;;;27.13;25.00;;;13.60;99.90;;;;;;4860994;29;20555;-77
2024/04/07 02:52:58;;;;;;;27.30;25.30;;;13.60;99.90;;;;;;4844165;29;20026;-78
2024/04/07 02:55:27;;;;;;;27.17;25.27;;;13.70;99.90;;;;;;4860889;29;20029;-78
2024/04/07 02:57:54;;;;;;;27.63;25.48;;;13.70;99.90;;;;;;4860650;29;20029;-78
2024/04/07 03:00:21;;;;;;;26.88;25.08;;;13.70;99.90;;;;;;4857817;29;20162;-77
2024/04/07 03:02:48;;;;;;;26.55;24.83;;;13.70;99.90;;;;;;4840907;29;20025;-78
2024/04/07 03:05:18;;;;;;;27.67;25.48;;;13.70;99.90;;;;;;4842316;29;20034;-77
2024/04/07 03:07:46;;;;;;;26.80;24.90;;;13.80;99.90;;;;;;4842203;29;20060;-77
2024/04/07 03:10:16;;;;;;;27.35;25.02;;;13.90;99.90;;;;;;4842279;29;20378;-77
2024/04/07 03:12:43;;;;;;;27.17;25.05;;;13.90;99.90;;;;;;4830093;29;20038;-78
2024/04/07 03:15:10;;;;;;;26.73;24.58;;;13.90;99.90;;;;;;4842199;29;20037;-77
2024/04/07 03:17:37;;;;;;;27.13;25.27;;;13.90;99.90;;;;;;4842118;29;20030;-77
2024/04/07 03:20:03;;;;;;;27.58;25.48;;;14.00;99.90;;;;;;4847696;29;20026;-78
2024/04/07 03:22:30;;;;;;;26.88;25.02;;;14.00;99.90;;;;;;4848932;29;20037;-77
2024/04/07 03:24:57;;;;;;;26.55;24.75;;;14.00;99.90;;;;;;4866730;29;20036;-77
2024/04/07 03:27:23;;;;;;;27.33;25.27;;;14.00;99.90;;;;;;4866561;29;20045;-78
2024/04/07 03:29:50;;;;;;;26.40;24.70;;;14.00;99.90;;;;;;4850101;29;20598;-78
2024/04/07 03:32:19;;;;;;;26.95;25.25;;;14.00;99.90;;;;;;4865488;29;20503;-77
2024/04/07 03:34:45;;;;;;;27.48;25.50;;;14.00;99.90;;;;;;4849863;29;20049;-77
2024/04/07 03:37:15;;;;;;;26.98;25.00;;;14.00;99.90;;;;;;4866632;29;20491;-77
2024/04/07 03:39:41;;;;;;;26.67;25.05;;;13.90;99.90;;;;;;4866641;29;20033;-78
2024/04/07 03:42:08;;;;;;;27.60;25.48;;;14.00;99.90;;;;;;4866581;29;20032;-77
2024/04/07 03:44:34;;;;;;;26.48;24.52;;;14.00;99.90;;;;;;4866522;29;20415;-77
2024/04/07 03:47:01;;;;;;;26.10;24.30;;;13.90;99.90;;;;;;4866423;29;20033;-77
2024/04/07 03:49:31;;;;;;;26.05;24.45;;;13.90;99.90;;;;;;4866517;29;20036;-77
2024/04/07 03:51:58;;;;;;;26.60;24.73;;;14.00;99.90;;;;;;4866482;29;20069;-77
2024/04/07 03:54:24;;;;;;;26.20;24.25;;;13.90;99.90;;;;;;4850474;29;20029;-77
2024/04/07 03:56:57;;;;;;;26.80;24.85;;;13.90;99.90;;;;;;4831433;29;20091;-77
2024/04/07 03:59:24;;;;;;;26.90;24.83;;;13.90;99.90;;;;;;4831542;29;20543;-77
2024/04/07 04:01:50;;;;;;;26.45;24.42;;;13.90;99.90;;;;;;4847833;29;20030;-77
2024/04/07 04:04:16;;;;;;;26.42;24.60;;;13.90;99.90;;;;;;4861656;29;20072;-77
2024/04/07 04:06:43;;;;;;;26.52;24.73;;;13.90;99.90;;;;;;4866333;29;20037;-77
2024/04/07 04:09:10;;;;;;;26.85;24.50;;;13.80;99.90;;;;;;4849887;29;20033;-77
2024/04/07 04:11:37;;;;;;;26.58;24.58;;;13.90;99.90;;;;;;4849869;29;20030;-77
2024/04/07 04:14:04;;;;;;;25.98;24.17;;;13.90;99.90;;;;;;4854420;29;20026;-78
2024/04/07 04:16:30;;;;;;;26.20;24.52;;;13.90;99.90;;;;;;4847879;29;20041;-78
2024/04/07 04:18:57;;;;;;;27.38;24.88;;;14.00;99.90;;;;;;4847998;29;20432;-77
2024/04/07 04:21:30;;;;;;;26.80;24.88;;;14.00;99.90;;;;;;4831111;29;20060;-77
2024/04/07 04:23:56;;;;;;;26.52;24.85;;;14.10;99.90;;;;;;4858565;29;20025;-77
2024/04/07 04:26:22;;;;;;;27.23;25.40;;;14.10;99.90;;;;;;4866144;29;20076;-77
2024/04/07 04:28:49;;;;;;;27.08;24.98;;;14.10;99.90;;;;;;4849365;29;20504;-77
2024/04/07 04:31:15;;;;;;;27.45;25.65;;;14.20;99.90;;;;;;4845767;29;20037;-77
2024/04/07 04:33:42;;;;;;;27.42;25.73;;;14.20;99.90;;;;;;4863187;29;20120;-77
2024/04/07 04:36:13;;;;;;;28.08;26.08;;;14.30;99.90;;;;;;4846735;29;20030;-78
2024/04/07 04:38:39;;;;;;;27.77;25.98;;;14.30;99.90;;;;;;4863080;29;20052;-77
2024/04/07 04:41:06;;;;;;;27.30;25.60;;;14.30;99.90;;;;;;4863172;29;20029;-78
2024/04/07 04:43:33;;;;;;;28.15;25.95;;;14.30;99.90;;;;;;4863022;29;20060;-78
2024/04/07 04:46:09;;;;;;;27.40;25.70;;;14.30;99.90;;;;;;4846518;29;20040;-77
2024/04/07 04:48:36;;;;;;;27.73;25.67;;;14.40;99.90;;;;;;4862932;29;20038;-77
2024/04/07 04:51:04;;;;;;;27.50;25.48;;;14.40;99.90;;;;;;4862945;29;20040;-78
2024/04/07 04:53:31;;;;;;;27.45;25.63;;;14.40;99.90;;;;;;4854575;29;20034;-78
2024/04/07 04:56:04;;;;;;;28.55;26.45;;;14.40;99.90;;;;;;4845428;29;20022;-77
2024/04/07 04:58:37;;;;;;;28.10;25.92;;;14.50;99.90;;;;;;4862747;29;20044;-77
2024/04/07 05:01:13;;;;;;;27.58;25.38;;;14.50;99.90;;;;;;4861490;29;20403;-77
2024/04/07 05:03:40;;;;;;;27.83;25.85;;;14.50;99.90;;;;;;4861500;29;20026;-77
2024/04/07 05:06:12;;;;;;;28.50;26.63;;;14.70;99.90;;;;;;4862281;29;20031;-78
2024/04/07 05:08:40;;;;;;;29.20;27.30;;;15.40;99.90;;;;;;4862536;29;20377;-78
2024/04/07 05:11:07;;;;;;;30.77;28.23;;;16.40;99.90;;;;;;4862600;29;20121;-77
2024/04/07 05:13:34;;;;;;;31.20;28.83;;;17.30;99.90;;;;;;4862506;29;20036;-78
2024/04/07 05:16:02;;;;;;;31.65;29.10;;;18.00;99.90;;;;;;4862558;29;20022;-78
2024/04/07 05:18:29;;;;;;;32.40;29.70;;;18.90;99.90;;;;;;4862414;29;20514;-78
2024/04/07 05:21:04;;;;;;;32.00;29.65;;;19.60;99.90;;;;;;4845630;29;20065;-78
2024/04/07 05:23:33;;;;;;;33.55;30.63;;;20.30;99.90;;;;;;4860999;29;20102;-78
2024/04/07 05:26:14;;;;;;;33.75;30.90;;;20.70;99.90;;;;;;4862366;29;20033;-78
2024/04/07 05:28:41;;;;;;;34.38;31.50;;;21.00;99.90;;;;;;4862167;29;20507;-78
2024/04/07 05:31:11;;;;;;;35.25;32.28;;;21.30;99.90;;;;;;4845636;29;20040;-78
2024/04/07 05:33:46;;;;;;;34.55;31.88;;;21.30;99.90;;;;;;4862140;29;20116;-78
2024/04/07 05:36:12;;;;;;;35.70;32.53;;;21.50;99.90;;;;;;4862227;29;20026;-78
2024/04/07 05:38:41;;;;;;;36.28;33.10;;;21.20;99.90;;;;;;4863124;29;20036;-75
2024/04/07 06:25:02;;;;;;;30.80;28.80;;;21.30;99.90;;;;;;5940179;23;20023;-80
2024/04/07 06:27:30;;;;;;;31.40;28.90;;;21.50;99.90;;;;;;4847796;29;20100;-80
2024/04/07 06:29:58;;;;;;;32.97;30.58;;;21.70;99.90;;;;;;4847824;29;20092;-80
2024/04/07 06:32:29;;;;;;;31.90;29.63;;;21.70;99.90;;;;;;4862988;29;20032;-80
2024/04/07 06:35:00;;;;;;;31.80;29.60;;;22.20;99.90;;;;;;4863036;29;20033;-80
2024/04/07 06:37:28;;;;;;;31.77;29.52;;;22.60;99.90;;;;;;4859670;29;20029;-81
2024/04/07 06:39:54;;;;;;;32.15;29.67;;;22.30;99.90;;;;;;4859957;29;20025;-80
2024/04/07 06:42:31;;;;;;;31.13;29.13;;;22.20;99.90;;;;;;4844675;29;20037;-80
2024/04/07 06:45:02;;;;;;;32.30;29.88;;;21.80;99.90;;;;;;4861184;29;20476;-82
2024/04/07 06:47:47;;;;;;;31.33;28.98;;;21.70;99.90;;;;;;4868600;29;20051;-82
2024/04/07 06:50:32;;;;;;;32.63;30.23;;;21.60;99.90;;;;;;4862914;29;20494;-82
2024/04/07 06:53:00;;;;;;;31.48;29.38;;;21.80;99.90;;;;;;4879085;29;20037;-81
2024/04/07 06:55:28;;;;;;;31.88;29.25;;;21.80;99.90;;;;;;4844756;29;20399;-80
2024/04/07 06:57:58;;;;;;;31.92;29.70;;;21.60;99.90;;;;;;4860866;29;20062;-80
2024/04/07 07:00:31;;;;;;;32.00;29.40;;;21.50;99.90;;;;;;4856189;29;20036;-80
2024/04/07 07:03:07;;;;;;;31.60;29.52;;;21.60;99.90;;;;;;4879183;29;20029;-80
2024/04/07 07:05:34;;;;;;;32.10;29.90;;;22.00;99.90;;;;;;4859430;29;20029;-80
2024/04/07 07:08:01;;;;;;;32.33;29.83;;;22.20;99.90;;;;;;4844064;29;20040;-81
2024/04/07 07:10:29;;;;;;;32.03;29.40;;;22.10;99.90;;;;;;4844208;29;20057;-80
2024/04/07 07:12:56;;;;;;;31.60;29.20;;;21.90;99.90;;;;;;4844074;29;20044;-79
2024/04/07 07:15:23;;;;;;;31.98;29.63;;;22.00;99.90;;;;;;4862074;29;20026;-80
2024/04/07 07:17:50;;;;;;;32.22;29.92;;;22.10;99.90;;;;;;4862612;29;20570;-79
2024/04/07 07:20:19;;;;;;;30.88;28.70;;;22.20;99.90;;;;;;4862428;29;20406;-80
2024/04/07 07:22:45;;;;;;;31.88;29.35;;;22.10;99.90;;;;;;4879050;29;20025;-81
2024/04/07 07:25:12;;;;;;;31.30;29.30;;;22.40;99.90;;;;;;4861741;29;20077;-79
2024/04/07 07:27:38;;;;;;;31.40;29.27;;;22.30;99.90;;;;;;4859191;29;20041;-80
2024/04/07 07:30:06;;;;;;;31.23;29.02;;;22.10;99.90;;;;;;4844013;29;20048;-80
2024/04/07 07:32:32;;;;;;;31.17;28.83;;;22.10;99.90;;;;;;4843946;29;20037;-79
2024/04/07 07:34:58;;;;;;;31.35;29.00;;;22.10;99.90;;;;;;4860605;29;20391;-80
2024/04/07 07:37:25;;;;;;;30.60;28.55;;;22.10;99.90;;;;;;4874285;29;20058;-79
2024/04/07 07:39:56;;;;;;;31.15;28.38;;;21.90;99.90;;;;;;4862300;29;20025;-79
2024/04/07 07:42:31;;;;;;;30.05;27.77;;;22.00;99.90;;;;;;4862313;29;20545;-80
2024/04/07 07:45:01;;;;;;;30.25;28.05;;;22.40;99.90;;;;;;4877761;29;20477;-80
2024/04/07 07:47:28;;;;;;;30.20;27.92;;;22.60;99.90;;;;;;4877048;29;20507;-79
2024/04/07 07:50:00;;;;;;;31.10;28.70;;;22.60;99.90;;;;;;4878733;29;20040;-80
2024/04/07 07:52:28;;;;;;;30.17;27.90;;;22.40;99.90;;;;;;4877546;29;20043;-80
2024/04/07 07:54:57;;;;;;;30.95;28.00;;;22.40;99.90;;;;;;4862359;29;20141;-80
2024/04/07 07:57:23;;;;;;;30.30;27.90;;;23.00;99.90;;;;;;4846036;29;20086;-80
2024/04/07 07:59:49;;;;;;;30.23;27.92;;;22.80;99.90;;;;;;4843904;29;20041;-81
2024/04/07 08:02:16;;;;;;;29.75;27.45;;;22.80;99.90;;;;;;4828499;29;20508;-80
2024/04/07 08:04:42;;;;;;;30.30;27.85;;;22.40;99.90;;;;;;4860108;29;20033;-80
2024/04/07 08:07:09;;;;;;;30.17;27.83;;;22.30;99.90;;;;;;4877379;29;20048;-80
2024/04/07 08:09:35;;;;;;;31.67;29.17;;;22.40;99.90;;;;;;4882421;29;20033;-80
2024/04/07 08:12:01;;;;;;;30.63;28.30;;;22.40;99.90;;;;;;4865621;29;20033;-80
2024/04/07 08:14:27;;;;;;;31.23;28.77;;;22.40;99.90;;;;;;4865633;29;20390;-80
2024/04/07 08:16:54;;;;;;;31.67;28.88;;;22.40;99.90;;;;;;4869597;29;20068;-80
2024/04/07 08:19:27;;;;;;;31.20;28.90;;;22.30;99.90;;;;;;4846637;29;20048;-79
2024/04/07 08:21:53;;;;;;;30.83;28.42;;;22.30;99.90;;;;;;4846930;29;20033;-79
2024/04/07 08:24:19;;;;;;;30.90;28.67;;;22.30;99.90;;;;;;4846688;29;20053;-79
2024/04/07 08:26:46;;;;;;;30.88;28.48;;;22.10;99.90;;;;;;4872695;29;20418;-79
2024/04/07 08:29:12;;;;;;;30.75;28.77;;;22.20;99.90;;;;;;4850352;29;20037;-80
2024/04/07 08:31:39;;;;;;;31.10;28.73;;;22.40;99.90;;;;;;4898916;29;20039;-80
2024/04/07 08:34:05;;;;;;;30.85;28.77;;;22.50;99.90;;;;;;4868105;29;20107;-79
2024/04/07 08:36:31;;;;;;;31.30;28.55;;;22.70;99.90;;;;;;4855540;29;20041;-80
2024/04/07 08:38:58;;;;;;;31.05;28.95;;;22.60;99.90;;;;;;4861847;29;20073;-80
2024/04/07 08:41:24;;;;;;;31.55;29.25;;;22.60;99.90;;;;;;4863092;29;20033;-81
2024/04/07 08:43:51;;;;;;;31.02;28.38;;;22.50;99.90;;;;;;4864668;29;20025;-79
2024/04/07 08:46:18;;;;;;;30.27;28.00;;;22.90;99.90;;;;;;4853183;29;20490;-80
2024/04/07 08:48:50;;;;;;;30.17;27.77;;;22.90;99.90;;;;;;4880372;29;20037;-80
2024/04/07 08:51:18;;;;;;;29.83;27.45;;;22.70;99.90;;;;;;4864582;29;20096;-80
2024/04/07 08:53:45;;;;;;;30.63;28.23;;;22.60;99.90;;;;;;4880139;29;20036;-80
2024/04/07 08:56:14;;;;;;;31.23;28.83;;;22.60;99.90;;;;;;4858248;29;20546;-81
2024/04/07 08:58:41;;;;;;;31.92;29.70;;;22.70;99.90;;;;;;4862730;29;20041;-80
2024/04/07 09:01:31;;;;;;;31.00;28.40;;;22.70;99.90;;;;;;4830922;29;20396;-81
2024/04/07 09:04:01;;;;;;;30.92;28.73;;;22.40;99.90;;;;;;4862726;29;20036;-80
2024/04/07 09:06:28;;;;;;;31.63;29.17;;;22.30;99.90;;;;;;4854093;29;20035;-81
2024/04/07 09:08:58;;;;;;;32.28;29.83;;;22.40;99.90;;;;;;4864478;29;20028;-82
2024/04/07 09:11:26;;;;;;;31.73;29.42;;;22.30;99.90;;;;;;4864325;29;20027;-81
2024/04/07 09:13:53;;;;;;;32.10;29.63;;;22.40;99.90;;;;;;4848769;29;20029;-81
2024/04/07 09:16:20;;;;;;;32.08;29.67;;;22.70;99.90;;;;;;4841202;29;20041;-79
2024/04/07 09:18:47;;;;;;;32.33;29.52;;;22.70;99.90;;;;;;4862384;29;20101;-80
2024/04/07 09:21:19;;;;;;;31.35;29.20;;;22.70;99.90;;;;;;4845679;29;20037;-81
2024/04/07 09:23:49;;;;;;;31.63;29.15;;;22.30;99.90;;;;;;4862279;29;20047;-81
2024/04/07 09:26:22;;;;;;;32.78;30.02;;;22.30;99.90;;;;;;4867417;29;20503;-81
2024/04/07 09:28:49;;;;;;;31.80;29.50;;;22.30;99.90;;;;;;4880713;29;20080;-81
2024/04/07 09:31:19;;;;;;;32.85;30.63;;;22.20;99.90;;;;;;4880699;29;20112;-82
2024/04/07 09:33:47;;;;;;;33.05;30.90;;;22.30;99.90;;;;;;4864241;29;20033;-81
2024/04/07 09:36:14;;;;;;;31.58;29.20;;;22.20;99.90;;;;;;4858028;29;20025;-81
2024/04/07 09:38:40;;;;;;;32.42;30.08;;;22.30;99.90;;;;;;4830343;29;20393;-81
2024/04/07 09:41:10;;;;;;;32.03;29.73;;;22.40;99.90;;;;;;4845359;29;20121;-81
2024/04/07 09:43:39;;;;;;;31.85;29.75;;;22.40;99.90;;;;;;4845312;29;20040;-82
2024/04/07 09:46:08;;;;;;;32.75;30.33;;;22.30;99.90;;;;;;4850048;29;20037;-81
2024/04/07 09:48:37;;;;;;;32.90;30.42;;;22.40;99.90;;;;;;4880143;29;20426;-82
2024/04/07 09:51:11;;;;;;;32.15;29.85;;;22.60;99.90;;;;;;4879145;29;20085;-83
2024/04/07 09:53:47;;;;;;;32.60;30.38;;;22.70;99.90;;;;;;4863396;29;20044;-81
2024/04/07 09:56:15;;;;;;;33.20;30.50;;;22.80;99.90;;;;;;4857854;29;20025;-82
2024/04/07 09:58:42;;;;;;;33.28;30.73;;;22.90;99.90;;;;;;4829901;29;20085;-83
2024/04/07 10:01:10;;;;;;;33.55;31.23;;;23.10;99.90;;;;;;4861539;29;20029;-82
2024/04/07 10:03:37;;;;;;;36.08;33.38;;;23.30;99.90;;;;;;4861773;29;20057;-82
2024/04/07 10:06:05;;;;;;;33.25;31.10;;;23.20;99.90;;;;;;4849300;29;20029;-82
2024/04/07 10:08:32;;;;;;;34.33;31.67;;;23.00;99.90;;;;;;4880003;29;20040;-82
2024/04/07 10:10:59;;;;;;;33.40;31.00;;;23.00;99.90;;;;;;4880265;29;20033;-79
2024/04/07 10:13:25;;;;;;;33.22;31.00;;;23.00;99.90;;;;;;4880117;29;20033;-82
2024/04/07 10:15:56;;;;;;;33.47;31.25;;;23.00;99.90;;;;;;4860547;29;20036;-81
2024/04/07 10:18:23;;;;;;;35.00;32.42;;;22.80;99.90;;;;;;4829895;29;20121;-82
2024/04/07 10:20:55;;;;;;;33.22;30.73;;;22.60;99.90;;;;;;4844537;29;20045;-82
2024/04/07 10:23:26;;;;;;;34.10;31.83;;;22.70;99.90;;;;;;4859795;29;20166;-80
2024/04/07 10:26:03;;;;;;;31.52;29.52;;;22.90;99.90;;;;;;4863462;29;20045;-80
2024/04/07 10:28:56;;;;;;;34.30;31.63;;;22.90;99.90;;;;;;4884473;29;20069;-80
2024/04/07 10:31:29;;;;;;;33.38;31.15;;;23.00;99.90;;;;;;4881958;29;20107;-79
2024/04/07 10:34:00;;;;;;;34.03;31.60;;;23.00;99.90;;;;;;4898662;29;20020;-80
2024/04/07 10:36:33;;;;;;;32.25;30.00;;;22.90;99.90;;;;;;4855956;29;20089;-81
2024/04/07 10:39:01;;;;;;;33.38;30.85;;;23.00;99.90;;;;;;4860015;29;20402;-81
2024/04/07 10:41:33;;;;;;;34.35;31.58;;;23.00;99.90;;;;;;4862205;29;20029;-81
2024/04/07 10:44:02;;;;;;;34.33;31.67;;;23.00;99.90;;;;;;4844510;29;20116;-82
2024/04/07 10:46:31;;;;;;;33.03;30.67;;;22.90;99.90;;;;;;4866631;29;20033;-80
2024/04/07 10:48:59;;;;;;;32.72;30.52;;;22.90;99.90;;;;;;4847331;29;20029;-82
2024/04/07 10:51:27;;;;;;;33.67;31.27;;;23.00;99.90;;;;;;4847346;29;20033;-80
2024/04/07 10:54:05;;;;;;;33.25;31.15;;;23.00;99.90;;;;;;4862588;29;20376;-78
2024/04/07 10:56:33;;;;;;;33.17;30.88;;;22.90;99.90;;;;;;4855311;29;20034;-79
2024/04/07 10:59:01;;;;;;;33.05;30.55;;;23.30;99.90;;;;;;4860767;29;20513;-79
2024/04/07 11:01:28;;;;;;;32.97;30.67;;;23.40;99.90;;;;;;4860695;29;20029;-79
2024/04/07 11:04:02;;;;;;;33.83;31.63;;;23.20;99.90;;;;;;4860855;29;20030;-79
2024/04/07 11:06:28;;;;;;;33.95;31.38;;;23.20;99.90;;;;;;4867045;29;20089;-79
2024/04/07 11:08:55;;;;;;;33.33;30.73;;;23.30;99.90;;;;;;4861061;29;20084;-79
2024/04/07 11:11:22;;;;;;;33.28;31.02;;;23.40;99.90;;;;;;4879221;29;20036;-82
2024/04/07 11:13:55;;;;;;;33.15;31.05;;;23.00;99.90;;;;;;4862360;29;20029;-80
2024/04/07 11:16:22;;;;;;;33.72;31.60;;;22.80;99.90;;;;;;4856610;29;20040;-79
2024/04/07 11:18:49;;;;;;;33.70;31.30;;;22.90;99.90;;;;;;4860350;29;20065;-83
2024/04/07 11:21:17;;;;;;;34.33;31.50;;;22.80;99.90;;;;;;4828654;29;20178;-80
2024/04/07 11:23:47;;;;;;;32.97;30.55;;;22.90;99.90;;;;;;4844229;29;20144;-80
2024/04/07 11:26:15;;;;;;;33.35;30.95;;;22.80;99.90;;;;;;4864778;29;20037;-79
2024/04/07 11:28:43;;;;;;;34.47;31.42;;;22.60;99.90;;;;;;4862433;29;20040;-80
2024/04/07 11:31:10;;;;;;;33.72;31.17;;;22.70;99.90;;;;;;4862312;29;20055;-80
2024/04/07 11:33:38;;;;;;;32.53;30.13;;;22.80;99.90;;;;;;4862364;29;20507;-82
2024/04/07 11:36:05;;;;;;;33.33;31.10;;;22.80;99.90;;;;;;4875758;29;20029;-80
2024/04/07 11:38:31;;;;;;;34.80;31.95;;;23.00;99.90;;;;;;4843870;29;20136;-80
2024/04/07 11:41:00;;;;;;;33.53;31.20;;;23.20;99.90;;;;;;4863377;29;20022;-83
2024/04/07 11:43:33;;;;;;;33.08;30.85;;;23.10;99.90;;;;;;4832286;29;20395;-83
2024/04/07 11:45:59;;;;;;;33.72;31.30;;;23.10;99.90;;;;;;4849594;29;20037;-81
2024/04/07 11:48:27;;;;;;;33.45;30.90;;;23.00;99.90;;;;;;4865661;29;20043;-80
2024/04/07 11:50:54;;;;;;;34.38;31.70;;;23.10;99.90;;;;;;4882525;29;20025;-80
2024/04/07 11:53:21;;;;;;;34.63;32.22;;;23.20;99.90;;;;;;4865817;29;20368;-80
2024/04/07 11:55:47;;;;;;;34.67;32.08;;;23.30;99.90;;;;;;4865302;29;20029;-80
2024/04/07 11:58:14;;;;;;;34.25;31.48;;;23.20;99.90;;;;;;4847193;29;20369;-81
2024/04/07 12:00:41;;;;;;;33.17;30.45;;;23.00;99.90;;;;;;4832061;29;20495;-81
2024/04/07 12:03:07;;;;;;;32.90;30.08;;;22.70;99.90;;;;;;4863772;29;20025;-80
2024/04/07 12:05:34;;;;;;;32.13;29.92;;;22.70;99.90;;;;;;4863794;29;20116;-80
2024/04/07 12:08:00;;;;;;;32.58;30.33;;;22.90;99.90;;;;;;4864415;29;20093;-81
2024/04/07 12:10:27;;;;;;;32.65;30.42;;;22.80;99.90;;;;;;4865444;29;20037;-80
2024/04/07 12:12:54;;;;;;;32.45;30.20;;;22.80;99.90;;;;;;4865561;29;20033;-81
2024/04/07 12:15:21;;;;;;;32.35;30.10;;;22.70;99.90;;;;;;4865603;29;20029;-80
2024/04/07 12:17:47;;;;;;;32.85;30.33;;;22.80;99.90;;;;;;4849942;29;20038;-81
2024/04/07 12:20:14;;;;;;;32.25;29.90;;;23.00;99.90;;;;;;4863384;29;20022;-80
2024/04/07 12:22:43;;;;;;;32.95;30.23;;;23.00;99.90;;;;;;4847011;29;20054;-79
2024/04/07 12:25:09;;;;;;;31.92;29.75;;;22.80;99.90;;;;;;4846596;29;20090;-80
2024/04/07 12:27:36;;;;;;;32.38;29.83;;;22.70;99.90;;;;;;4877318;29;20036;-80
2024/04/07 12:30:03;;;;;;;32.33;29.92;;;22.60;99.90;;;;;;4849937;29;20033;-79
2024/04/07 12:32:29;;;;;;;31.77;29.45;;;22.50;99.90;;;;;;4881994;29;20036;-81
2024/04/07 12:34:56;;;;;;;31.70;29.50;;;22.60;99.90;;;;;;4861980;29;20022;-81
2024/04/07 12:37:23;;;;;;;32.13;29.92;;;22.70;99.90;;;;;;4853702;29;20407;-81
2024/04/07 12:39:50;;;;;;;32.50;30.00;;;22.80;99.90;;;;;;4880547;29;20051;-80
2024/04/07 12:42:17;;;;;;;32.50;29.92;;;22.80;99.90;;;;;;4865017;29;20035;-81
2024/04/07 12:44:44;;;;;;;32.83;30.40;;;22.80;99.90;;;;;;4865178;29;20025;-80
2024/04/07 12:47:12;;;;;;;32.78;30.58;;;22.90;99.90;;;;;;4846311;29;20448;-81
2024/04/07 12:49:38;;;;;;;33.05;30.65;;;22.90;99.90;;;;;;4846434;29;20034;-81
2024/04/07 12:52:05;;;;;;;33.50;30.85;;;22.80;99.90;;;;;;4845490;29;20070;-80
2024/04/07 12:54:32;;;;;;;32.95;30.58;;;22.80;99.90;;;;;;4830966;29;20094;-80
2024/04/07 12:56:59;;;;;;;32.67;30.05;;;22.80;99.90;;;;;;4851856;29;20025;-81
2024/04/07 12:59:25;;;;;;;33.33;30.67;;;22.80;99.90;;;;;;4877078;29;20041;-81
2024/04/07 13:01:52;;;;;;;34.00;31.35;;;22.90;99.90;;;;;;4861705;29;20075;-80
2024/04/07 13:04:19;;;;;;;33.00;30.63;;;22.90;99.90;;;;;;4877033;29;20117;-81
2024/04/07 13:06:45;;;;;;;33.15;30.85;;;22.90;99.90;;;;;;4849795;29;20038;-79
2024/04/07 13:09:12;;;;;;;32.25;29.98;;;22.50;99.90;;;;;;4831196;29;20045;-80
2024/04/07 13:11:39;;;;;;;32.47;29.85;;;22.30;99.90;;;;;;4861461;29;20033;-79
2024/04/07 13:14:05;;;;;;;33.00;30.38;;;22.40;99.90;;;;;;4862661;29;20034;-80
2024/04/07 13:16:32;;;;;;;32.17;29.88;;;22.40;99.90;;;;;;4836888;29;20125;-80
2024/04/07 13:18:58;;;;;;;32.63;30.00;;;22.70;99.90;;;;;;4864199;29;20133;-80